Time;durP1;ratioP1;P1;durP2;ratioP2;P2;SDS_P1;SDS_P2;PMS_P1;PMS_P2;Temp;Humidity;BMP_temperature;BMP_pressure;BME280_temperature;BME280_humidity;BME280_pressure;Samples;Min_cycle;Max_cycle;Signal;HPM_P1;HPM_P2
2021/10/08 00:00:35;;;;;;;14.35;11.27;;;16.20;98.10;;;;;;5064419;28;20048;-68
2021/10/08 00:03:02;;;;;;;13.70;9.85;;;16.30;98.00;;;;;;5043644;28;20057;-68
2021/10/08 00:05:29;;;;;;;18.52;10.30;;;16.30;98.20;;;;;;5065114;28;20136;-68
2021/10/08 00:07:58;;;;;;;12.70;9.57;;;16.20;98.10;;;;;;5068867;28;20036;-68
2021/10/08 00:10:26;;;;;;;14.13;9.77;;;16.30;98.10;;;;;;5071264;28;20079;-67
2021/10/08 00:12:53;;;;;;;13.80;9.57;;;16.30;98.00;;;;;;5059555;28;20049;-67
2021/10/08 00:15:20;;;;;;;15.93;9.52;;;16.20;98.10;;;;;;5059970;28;20045;-68
2021/10/08 00:17:50;;;;;;;15.45;10.13;;;16.30;98.10;;;;;;5037029;28;20059;-68
2021/10/08 00:20:18;;;;;;;14.50;10.10;;;16.30;98.10;;;;;;5053224;28;20078;-68
2021/10/08 00:22:46;;;;;;;13.13;8.95;;;16.20;98.00;;;;;;5052324;28;20116;-68
2021/10/08 00:25:13;;;;;;;12.98;9.38;;;16.20;98.10;;;;;;5054170;28;20408;-68
2021/10/08 00:27:40;;;;;;;14.60;9.95;;;16.20;98.00;;;;;;5040051;28;20146;-68
2021/10/08 00:30:09;;;;;;;13.50;9.57;;;16.20;98.00;;;;;;5058437;28;20394;-68
2021/10/08 00:32:35;;;;;;;13.80;9.55;;;16.20;98.00;;;;;;5056565;28;20042;-68
2021/10/08 00:35:03;;;;;;;14.27;9.45;;;16.30;98.00;;;;;;5053651;28;20084;-67
2021/10/08 00:37:30;;;;;;;14.20;10.82;;;16.20;98.10;;;;;;5059594;28;20410;-67
2021/10/08 00:39:57;;;;;;;13.07;9.02;;;16.20;98.10;;;;;;5066485;28;20058;-67
2021/10/08 00:42:26;;;;;;;16.42;9.75;;;16.20;98.10;;;;;;5059332;28;20120;-67
2021/10/08 00:44:53;;;;;;;15.35;9.65;;;16.20;98.30;;;;;;5059500;28;20121;-67
2021/10/08 00:47:20;;;;;;;15.13;9.80;;;16.10;98.30;;;;;;5054555;28;20414;-67
2021/10/08 00:49:47;;;;;;;14.02;9.35;;;16.10;98.40;;;;;;5019618;28;20489;-67
2021/10/08 00:52:15;;;;;;;14.77;9.32;;;16.10;98.40;;;;;;5041318;28;20045;-68
2021/10/08 00:54:41;;;;;;;13.10;9.38;;;16.20;98.30;;;;;;5066315;28;20048;-67
2021/10/08 00:57:09;;;;;;;16.08;9.50;;;16.20;98.20;;;;;;5055164;28;20103;-68
2021/10/08 00:59:36;;;;;;;11.15;7.97;;;16.20;98.20;;;;;;5052849;28;20542;-68
2021/10/08 01:02:04;;;;;;;11.80;8.80;;;16.20;98.20;;;;;;5053819;28;20096;-68
2021/10/08 01:04:31;;;;;;;11.35;8.60;;;16.20;98.00;;;;;;5022767;28;20060;-68
2021/10/08 01:06:58;;;;;;;11.48;9.25;;;16.20;98.00;;;;;;5065695;28;20052;-68
2021/10/08 01:09:25;;;;;;;12.35;8.48;;;16.30;98.10;;;;;;5057728;28;20500;-68
2021/10/08 01:11:52;;;;;;;10.55;8.40;;;16.20;97.90;;;;;;5050497;28;20108;-67
2021/10/08 01:14:19;;;;;;;13.15;8.55;;;16.20;97.90;;;;;;5050236;28;20091;-68
2021/10/08 01:16:46;;;;;;;11.05;8.45;;;16.30;98.00;;;;;;5061065;28;20112;-67
2021/10/08 01:19:13;;;;;;;11.02;8.77;;;16.30;97.90;;;;;;5059702;28;20095;-68
2021/10/08 01:21:41;;;;;;;10.48;8.50;;;16.30;98.00;;;;;;5060875;28;20103;-67
2021/10/08 01:24:08;;;;;;;10.13;7.63;;;16.20;98.00;;;;;;5060835;28;20052;-67
2021/10/08 01:26:35;;;;;;;10.65;7.70;;;16.20;97.90;;;;;;5059933;28;20036;-68
2021/10/08 01:29:02;;;;;;;10.32;8.45;;;16.30;97.80;;;;;;5053864;28;20048;-67
2021/10/08 01:31:29;;;;;;;13.15;8.57;;;16.30;97.90;;;;;;5060243;28;20045;-67
2021/10/08 01:33:56;;;;;;;11.27;8.43;;;16.20;97.80;;;;;;5060053;28;20048;-67
2021/10/08 01:36:23;;;;;;;9.85;7.57;;;16.30;97.90;;;;;;5043949;28;20125;-67
2021/10/08 01:38:50;;;;;;;11.15;8.18;;;16.20;97.90;;;;;;5053762;28;20041;-68
2021/10/08 01:41:17;;;;;;;9.82;7.35;;;16.20;98.00;;;;;;5064555;28;20047;-67
2021/10/08 01:43:44;;;;;;;10.60;8.48;;;16.20;98.00;;;;;;5059891;28;20086;-68
2021/10/08 01:46:11;;;;;;;9.00;7.18;;;16.20;98.00;;;;;;5032672;28;20140;-67
2021/10/08 01:48:40;;;;;;;9.85;7.60;;;16.20;98.10;;;;;;5052903;28;20071;-67
2021/10/08 01:51:07;;;;;;;10.55;7.50;;;16.20;98.10;;;;;;5058814;28;20120;-68
2021/10/08 01:53:34;;;;;;;14.15;7.88;;;16.20;98.20;;;;;;5068426;28;20045;-67
2021/10/08 01:56:01;;;;;;;9.18;7.43;;;16.20;98.50;;;;;;5068263;28;20067;-67
2021/10/08 01:58:28;;;;;;;13.20;7.70;;;16.20;98.40;;;;;;5063821;28;20064;-67
2021/10/08 02:00:55;;;;;;;9.40;7.03;;;16.10;98.40;;;;;;5061873;28;20048;-68
2021/10/08 02:03:22;;;;;;;9.82;6.22;;;16.10;98.40;;;;;;5060795;28;20045;-67
2021/10/08 02:05:49;;;;;;;7.90;6.18;;;16.10;98.60;;;;;;5058037;28;20047;-68
2021/10/08 02:08:16;;;;;;;6.78;5.32;;;16.10;98.70;;;;;;5053008;28;20156;-67
2021/10/08 02:10:43;;;;;;;7.80;5.95;;;16.10;98.60;;;;;;5061914;28;20474;-67
2021/10/08 02:13:10;;;;;;;7.22;5.47;;;16.00;98.80;;;;;;5061594;28;20093;-67
2021/10/08 02:15:37;;;;;;;11.05;6.05;;;16.00;98.70;;;;;;5061609;28;20089;-67
2021/10/08 02:18:04;;;;;;;8.98;6.18;;;16.00;98.90;;;;;;5060054;28;20059;-67
2021/10/08 02:20:32;;;;;;;10.18;5.88;;;15.90;99.00;;;;;;5062528;28;20480;-67
2021/10/08 02:22:59;;;;;;;9.48;6.00;;;15.90;99.20;;;;;;5054293;28;20076;-67
2021/10/08 02:25:27;;;;;;;8.18;6.00;;;15.90;99.20;;;;;;5057044;28;20037;-67
2021/10/08 02:27:54;;;;;;;8.70;5.82;;;15.90;99.40;;;;;;5059541;28;20045;-68
2021/10/08 02:30:21;;;;;;;11.15;7.10;;;15.90;99.30;;;;;;5060110;28;20053;-68
2021/10/08 02:32:48;;;;;;;8.52;6.07;;;15.80;99.30;;;;;;5056862;28;20124;-67
2021/10/08 02:35:14;;;;;;;9.13;6.90;;;15.80;99.50;;;;;;5059492;28;20403;-67
2021/10/08 02:37:41;;;;;;;9.38;6.15;;;15.80;99.40;;;;;;5053621;28;20091;-67
2021/10/08 02:40:10;;;;;;;7.82;5.20;;;15.80;99.50;;;;;;5068290;28;20064;-67
2021/10/08 02:42:37;;;;;;;7.07;5.03;;;15.80;99.40;;;;;;5059427;28;20099;-67
2021/10/08 02:45:05;;;;;;;8.13;4.82;;;15.80;99.30;;;;;;5067560;28;20045;-67
2021/10/08 02:47:32;;;;;;;7.35;5.13;;;15.80;99.40;;;;;;5063787;28;20132;-69
2021/10/08 02:50:00;;;;;;;8.57;4.90;;;15.80;99.30;;;;;;5055198;28;20053;-68
2021/10/08 02:52:29;;;;;;;9.00;5.20;;;15.70;99.30;;;;;;5062765;28;20048;-67
2021/10/08 02:55:07;;;;;;;8.15;4.93;;;15.80;99.30;;;;;;5058205;28;20049;-67
2021/10/08 02:57:57;;;;;;;11.07;4.68;;;15.70;99.50;;;;;;5052417;28;20484;-67
2021/10/08 03:00:25;;;;;;;8.88;4.18;;;15.70;99.30;;;;;;5060742;28;20048;-68
2021/10/08 03:02:53;;;;;;;6.93;4.18;;;15.60;99.30;;;;;;5059013;28;20102;-68
2021/10/08 03:05:20;;;;;;;11.17;3.77;;;15.60;99.40;;;;;;5054155;28;20496;-67
2021/10/08 03:07:47;;;;;;;8.93;3.70;;;15.60;99.40;;;;;;5057595;28;20784;-67
2021/10/08 03:10:15;;;;;;;7.80;3.85;;;15.60;99.40;;;;;;5060485;28;20048;-67
2021/10/08 03:12:42;;;;;;;6.60;2.97;;;15.50;99.40;;;;;;5050268;28;20215;-67
2021/10/08 03:15:09;;;;;;;7.38;3.30;;;15.50;99.30;;;;;;5085433;28;20171;-67
2021/10/08 03:17:36;;;;;;;7.22;3.92;;;15.50;99.30;;;;;;5089898;28;20054;-68
2021/10/08 03:20:05;;;;;;;7.78;3.75;;;15.50;99.50;;;;;;5090636;28;20439;-68
2021/10/08 03:22:32;;;;;;;8.00;3.92;;;15.50;99.40;;;;;;5054132;28;20044;-67
2021/10/08 03:24:59;;;;;;;6.88;3.08;;;15.50;99.30;;;;;;5090526;28;20081;-67
2021/10/08 03:27:26;;;;;;;7.70;3.17;;;15.50;99.30;;;;;;5072735;28;20071;-67
2021/10/08 03:29:53;;;;;;;7.70;4.00;;;15.50;99.50;;;;;;5069857;28;20052;-67
2021/10/08 03:32:20;;;;;;;5.72;3.63;;;15.50;99.40;;;;;;5062891;28;20054;-67
2021/10/08 03:34:47;;;;;;;9.30;3.75;;;15.50;99.40;;;;;;5026102;28;20057;-68
2021/10/08 03:37:18;;;;;;;6.30;3.33;;;15.50;99.30;;;;;;5089923;28;20386;-67
2021/10/08 03:39:48;;;;;;;4.25;2.63;;;15.50;99.30;;;;;;5055732;28;20050;-68
2021/10/08 03:42:20;;;;;;;5.28;3.35;;;15.50;99.20;;;;;;5057244;28;20124;-67
2021/10/08 03:44:54;;;;;;;4.05;2.63;;;15.60;99.20;;;;;;5055092;28;20534;-67
2021/10/08 03:47:26;;;;;;;5.75;2.72;;;15.60;99.10;;;;;;5081260;28;20075;-67
2021/10/08 03:49:53;;;;;;;6.18;3.72;;;15.60;99.10;;;;;;5057546;28;20040;-68
2021/10/08 03:52:20;;;;;;;4.68;3.53;;;15.60;99.10;;;;;;5089744;28;20048;-68
2021/10/08 03:54:47;;;;;;;6.82;2.65;;;15.60;99.00;;;;;;5090008;28;20036;-68
2021/10/08 03:57:14;;;;;;;6.82;3.17;;;15.60;99.00;;;;;;5073223;28;20048;-68
2021/10/08 03:59:41;;;;;;;4.32;2.40;;;15.60;98.90;;;;;;5055434;28;20425;-68
2021/10/08 04:02:08;;;;;;;3.67;2.63;;;15.60;98.80;;;;;;5054079;28;20395;-68
2021/10/08 04:04:35;;;;;;;4.28;2.88;;;15.60;98.60;;;;;;5089996;28;20135;-68
2021/10/08 04:07:02;;;;;;;4.63;2.47;;;15.60;98.60;;;;;;5089875;28;20055;-68
2021/10/08 04:09:29;;;;;;;6.75;3.10;;;15.60;98.60;;;;;;5071863;28;20135;-67
2021/10/08 04:11:56;;;;;;;5.85;2.97;;;15.60;98.90;;;;;;5089687;28;20514;-68
2021/10/08 04:14:23;;;;;;;5.80;2.53;;;15.60;98.80;;;;;;5071522;28;20119;-67
2021/10/08 04:16:51;;;;;;;4.78;2.63;;;15.60;98.70;;;;;;5071229;28;20124;-68
2021/10/08 04:19:18;;;;;;;5.55;2.40;;;15.60;98.60;;;;;;5089642;28;20222;-68
2021/10/08 04:21:44;;;;;;;7.07;2.45;;;15.60;98.70;;;;;;5037243;28;20211;-68
2021/10/08 04:24:11;;;;;;;7.38;2.90;;;15.60;98.70;;;;;;5089274;28;20044;-67
2021/10/08 04:26:39;;;;;;;6.03;2.72;;;15.60;98.70;;;;;;5038530;28;20123;-67
2021/10/08 04:29:05;;;;;;;4.18;2.05;;;15.60;98.60;;;;;;5090048;28;20122;-67
2021/10/08 04:31:32;;;;;;;4.10;2.78;;;15.60;98.80;;;;;;5082309;28;20064;-67
2021/10/08 04:33:59;;;;;;;3.53;2.20;;;15.60;98.80;;;;;;5087261;28;20047;-67
2021/10/08 04:36:26;;;;;;;3.70;2.30;;;15.60;98.80;;;;;;5072177;28;20186;-67
2021/10/08 04:38:53;;;;;;;4.95;2.20;;;15.60;99.00;;;;;;5071011;28;20074;-67
2021/10/08 04:41:21;;;;;;;6.60;2.70;;;15.50;99.10;;;;;;5054590;28;20123;-67
2021/10/08 04:43:48;;;;;;;4.47;2.30;;;15.60;99.00;;;;;;5053685;28;20044;-67
2021/10/08 04:46:15;;;;;;;8.40;2.78;;;15.50;99.00;;;;;;5078678;28;20052;-68
2021/10/08 04:48:42;;;;;;;4.10;2.53;;;15.50;98.80;;;;;;5065563;28;20127;-68
2021/10/08 04:51:09;;;;;;;5.47;2.92;;;15.50;98.80;;;;;;5054457;28;20127;-68
2021/10/08 04:53:36;;;;;;;5.38;2.70;;;15.50;98.80;;;;;;5071220;28;20044;-68
2021/10/08 04:56:03;;;;;;;6.03;2.65;;;15.50;98.80;;;;;;5089695;28;20131;-67
2021/10/08 04:58:30;;;;;;;5.65;2.42;;;15.50;98.80;;;;;;5055002;28;20467;-67
2021/10/08 05:00:57;;;;;;;6.05;2.72;;;15.50;98.90;;;;;;5085629;28;20060;-68
2021/10/08 05:03:24;;;;;;;4.10;1.90;;;15.50;99.00;;;;;;5087479;28;20348;-68
2021/10/08 05:05:51;;;;;;;5.05;2.47;;;15.50;98.80;;;;;;5084556;28;20488;-68
2021/10/08 05:08:21;;;;;;;4.60;2.63;;;15.50;98.80;;;;;;5071268;28;20492;-67
2021/10/08 05:10:48;;;;;;;5.20;2.88;;;15.50;98.80;;;;;;5053741;28;20099;-67
2021/10/08 05:13:16;;;;;;;4.30;2.33;;;15.50;98.70;;;;;;5044209;28;20127;-67
2021/10/08 05:15:43;;;;;;;4.40;2.10;;;15.50;98.80;;;;;;5008611;28;20119;-67
2021/10/08 05:18:10;;;;;;;5.03;2.55;;;15.40;98.60;;;;;;5072383;28;20090;-67
2021/10/08 05:20:37;;;;;;;6.00;2.70;;;15.40;98.70;;;;;;5015011;28;20044;-68
2021/10/08 05:23:04;;;;;;;4.60;2.75;;;15.40;98.70;;;;;;5071671;28;20051;-68
2021/10/08 05:25:31;;;;;;;6.53;2.90;;;15.40;98.80;;;;;;5039919;28;20037;-67
2021/10/08 05:27:58;;;;;;;5.30;2.65;;;15.40;98.80;;;;;;5047956;28;20049;-67
2021/10/08 05:30:26;;;;;;;6.18;2.70;;;15.40;98.90;;;;;;5041258;28;20452;-67
2021/10/08 05:32:53;;;;;;;4.55;2.42;;;15.30;98.90;;;;;;5055976;28;20061;-67
2021/10/08 05:35:20;;;;;;;4.20;2.50;;;15.40;99.00;;;;;;5026345;28;20476;-67
2021/10/08 05:37:47;;;;;;;5.60;2.67;;;15.40;98.90;;;;;;5038963;28;20043;-67
2021/10/08 05:40:14;;;;;;;5.88;3.20;;;15.40;98.80;;;;;;5071357;28;20044;-67
2021/10/08 05:42:41;;;;;;;6.78;3.00;;;15.40;98.90;;;;;;5067995;28;20040;-68
2021/10/08 05:45:09;;;;;;;6.90;3.42;;;15.40;98.90;;;;;;5070936;28;20044;-68
2021/10/08 05:47:36;;;;;;;6.63;3.08;;;15.40;98.90;;;;;;5052922;28;20083;-68
2021/10/08 05:50:04;;;;;;;5.63;2.90;;;15.40;98.80;;;;;;5061912;28;20043;-67
2021/10/08 05:52:31;;;;;;;6.05;3.10;;;15.40;98.80;;;;;;5070901;28;20489;-67
2021/10/08 05:54:58;;;;;;;5.28;3.15;;;15.40;98.80;;;;;;5071295;28;20116;-67
2021/10/08 05:57:25;;;;;;;4.97;3.30;;;15.40;98.90;;;;;;5046367;28;20097;-67
2021/10/08 05:59:52;;;;;;;6.72;2.95;;;15.40;98.90;;;;;;5072036;28;20142;-67
2021/10/08 06:02:19;;;;;;;6.95;3.15;;;15.30;99.00;;;;;;5067373;28;20051;-67
2021/10/08 06:04:46;;;;;;;6.43;3.45;;;15.30;99.00;;;;;;5046406;28;20457;-67
2021/10/08 06:07:15;;;;;;;5.10;2.80;;;15.30;99.00;;;;;;5045210;28;20411;-67
2021/10/08 06:09:45;;;;;;;6.07;2.67;;;15.30;99.00;;;;;;5070498;28;20531;-67
2021/10/08 06:12:13;;;;;;;7.93;3.33;;;15.40;98.90;;;;;;5039677;28;20052;-68
2021/10/08 06:14:40;;;;;;;6.35;3.50;;;15.30;99.00;;;;;;5067728;28;20066;-67
2021/10/08 06:17:07;;;;;;;4.43;2.72;;;15.40;99.00;;;;;;5088519;28;20062;-67
2021/10/08 06:19:34;;;;;;;8.45;3.42;;;15.30;99.00;;;;;;5065434;28;20463;-67
2021/10/08 06:22:01;;;;;;;5.82;3.03;;;15.30;99.20;;;;;;5066442;28;20044;-67
2021/10/08 06:24:28;;;;;;;6.65;3.33;;;15.30;99.20;;;;;;5085776;28;20144;-67
2021/10/08 06:26:55;;;;;;;5.82;3.47;;;15.30;99.20;;;;;;5087108;28;20123;-67
2021/10/08 06:29:23;;;;;;;6.88;3.97;;;15.30;99.10;;;;;;5080731;28;20072;-67
2021/10/08 06:31:49;;;;;;;6.93;3.53;;;15.30;99.10;;;;;;5078458;28;20427;-67
2021/10/08 06:34:16;;;;;;;9.25;4.93;;;15.30;99.20;;;;;;5061684;28;20064;-67
2021/10/08 06:36:43;;;;;;;8.43;4.65;;;15.30;99.10;;;;;;5081190;28;20123;-66
2021/10/08 06:39:10;;;;;;;11.48;4.95;;;15.30;99.00;;;;;;5080103;28;20040;-67
2021/10/08 06:41:38;;;;;;;7.78;4.03;;;15.30;98.90;;;;;;5064505;28;20094;-66
2021/10/08 06:44:05;;;;;;;9.20;4.75;;;15.30;98.90;;;;;;5063632;28;20049;-67
2021/10/08 06:46:32;;;;;;;11.32;4.82;;;15.20;99.00;;;;;;5054860;28;20040;-66
2021/10/08 06:48:59;;;;;;;11.65;5.72;;;15.20;99.20;;;;;;5060774;28;20059;-67
2021/10/08 06:51:26;;;;;;;9.07;5.00;;;15.20;99.30;;;;;;5062055;28;20044;-67
2021/10/08 06:53:53;;;;;;;9.00;5.60;;;15.20;99.40;;;;;;5065589;28;20043;-67
2021/10/08 06:56:20;;;;;;;10.18;5.93;;;15.30;99.30;;;;;;5090299;28;20407;-66
2021/10/08 06:58:47;;;;;;;9.82;5.55;;;15.20;99.20;;;;;;5082464;28;20048;-67
2021/10/08 07:01:14;;;;;;;10.90;5.65;;;15.20;99.20;;;;;;5048603;28;20052;-67
2021/10/08 07:03:41;;;;;;;11.27;6.70;;;15.20;99.30;;;;;;5067956;28;20521;-65
2021/10/08 07:06:08;;;;;;;11.93;6.05;;;15.20;99.30;;;;;;5067165;28;20500;-69
2021/10/08 07:08:35;;;;;;;402.35;359.30;;;15.20;99.30;;;;;;5050318;28;20035;-65
2021/10/08 07:11:05;;;;;;;55.05;44.20;;;15.20;99.40;;;;;;5072987;28;20553;-65
2021/10/08 07:13:33;;;;;;;23.98;16.75;;;15.20;99.30;;;;;;5070580;28;20052;-65
2021/10/08 07:16:03;;;;;;;15.07;7.80;;;15.30;99.50;;;;;;5046011;28;20115;-66
2021/10/08 07:18:44;;;;;;;14.13;6.85;;;15.30;99.30;;;;;;5068582;28;20040;-65
2021/10/08 07:21:10;;;;;;;10.05;6.50;;;15.30;99.30;;;;;;5072771;28;20119;-65
2021/10/08 07:23:40;;;;;;;11.73;6.82;;;15.30;99.30;;;;;;5055675;28;20067;-65
2021/10/08 07:26:12;;;;;;;22.15;14.43;;;15.40;99.30;;;;;;5049535;28;20045;-65
2021/10/08 07:28:39;;;;;;;73.40;63.70;;;15.40;99.40;;;;;;5053801;28;20088;-65
2021/10/08 07:31:07;;;;;;;58.97;52.83;;;15.50;99.30;;;;;;5073888;28;20071;-65
2021/10/08 07:33:38;;;;;;;13.88;9.02;;;15.50;99.10;;;;;;5059194;28;20096;-65
2021/10/08 07:36:05;;;;;;;8.30;5.55;;;15.60;98.90;;;;;;5070969;28;20241;-65
2021/10/08 07:38:32;;;;;;;10.45;6.63;;;15.60;99.00;;;;;;5053462;28;20044;-65
2021/10/08 07:40:59;;;;;;;8.98;5.13;;;15.70;99.00;;;;;;5052597;28;20055;-65
2021/10/08 07:43:26;;;;;;;11.65;7.15;;;15.70;99.10;;;;;;5069587;28;20040;-65
2021/10/08 07:45:53;;;;;;;11.27;7.10;;;15.70;98.90;;;;;;5070572;28;20041;-65
2021/10/08 07:48:20;;;;;;;9.65;6.55;;;15.80;98.60;;;;;;5070081;28;20078;-65
2021/10/08 07:50:47;;;;;;;9.50;5.47;;;15.80;98.60;;;;;;5070414;28;20392;-65
2021/10/08 07:53:14;;;;;;;11.90;6.65;;;15.90;98.70;;;;;;5070436;28;20453;-65
2021/10/08 07:55:41;;;;;;;9.40;5.82;;;15.90;98.30;;;;;;5052612;28;20079;-65
2021/10/08 07:58:08;;;;;;;10.80;6.35;;;16.00;98.40;;;;;;5070670;28;20041;-65
2021/10/08 08:00:35;;;;;;;12.27;7.45;;;16.00;98.30;;;;;;5070619;28;20447;-65
2021/10/08 08:03:02;;;;;;;10.48;6.07;;;16.00;98.60;;;;;;5032066;28;20493;-66
2021/10/08 08:05:30;;;;;;;9.80;6.47;;;16.00;97.60;;;;;;5046992;28;20056;-65
2021/10/08 08:07:57;;;;;;;10.60;7.20;;;16.00;98.10;;;;;;5069437;28;20048;-65
2021/10/08 08:10:24;;;;;;;10.70;6.75;;;16.00;98.10;;;;;;5070397;28;20469;-65
2021/10/08 08:12:51;;;;;;;10.18;6.93;;;16.00;97.70;;;;;;5070552;28;20461;-65
2021/10/08 08:15:19;;;;;;;13.90;7.55;;;16.00;97.70;;;;;;5067091;28;20056;-65
2021/10/08 08:17:46;;;;;;;11.50;6.72;;;16.10;97.80;;;;;;5053255;28;20501;-66
2021/10/08 08:20:13;;;;;;;9.57;6.65;;;16.10;97.70;;;;;;5027258;28;20412;-66
2021/10/08 08:22:40;;;;;;;10.95;6.30;;;16.20;97.70;;;;;;5033702;28;20079;-65
2021/10/08 08:25:07;;;;;;;8.60;5.80;;;16.20;97.20;;;;;;5062903;28;20381;-66
2021/10/08 08:27:35;;;;;;;11.80;6.55;;;16.20;96.90;;;;;;5046473;28;20122;-65
2021/10/08 08:30:04;;;;;;;10.05;6.53;;;16.30;97.10;;;;;;5069701;28;20131;-66
2021/10/08 08:32:32;;;;;;;9.23;5.72;;;16.30;97.00;;;;;;5049971;28;20052;-66
2021/10/08 08:34:59;;;;;;;9.95;6.43;;;16.40;97.00;;;;;;5036047;28;20037;-66
2021/10/08 08:37:26;;;;;;;7.95;5.75;;;16.40;96.70;;;;;;5055517;28;20119;-66
2021/10/08 08:39:53;;;;;;;12.35;7.43;;;16.50;96.30;;;;;;5015304;28;20160;-66
2021/10/08 08:42:20;;;;;;;7.75;5.20;;;16.50;97.00;;;;;;5051374;28;20349;-66
2021/10/08 08:44:48;;;;;;;9.98;6.68;;;16.50;96.60;;;;;;5068757;28;20475;-66
2021/10/08 08:47:16;;;;;;;9.82;5.53;;;16.60;96.30;;;;;;5055291;28;20091;-66
2021/10/08 08:49:43;;;;;;;8.40;5.22;;;16.60;96.90;;;;;;5058709;28;20411;-66
2021/10/08 08:52:10;;;;;;;8.45;5.30;;;16.70;96.30;;;;;;5075331;28;20468;-66
2021/10/08 08:54:39;;;;;;;8.02;4.60;;;16.70;96.00;;;;;;5075675;28;20044;-66
2021/10/08 08:57:13;;;;;;;7.97;5.30;;;16.70;95.90;;;;;;5046135;28;20135;-66
2021/10/08 09:00:17;;;;;;;8.40;4.90;;;16.80;96.20;;;;;;5075570;28;20144;-66
2021/10/08 09:02:44;;;;;;;7.78;4.82;;;16.80;95.70;;;;;;4996883;28;20426;-66
2021/10/08 09:05:26;;;;;;;9.70;5.38;;;16.90;95.60;;;;;;5018748;28;20128;-66
2021/10/08 09:07:57;;;;;;;10.48;5.65;;;16.90;95.80;;;;;;5042533;28;20059;-66
2021/10/08 09:10:28;;;;;;;10.10;6.25;;;17.00;96.20;;;;;;5052368;28;20048;-67
2021/10/08 09:12:56;;;;;;;9.32;5.95;;;17.00;95.70;;;;;;5064371;28;20167;-66
2021/10/08 09:15:25;;;;;;;8.52;5.20;;;17.10;95.30;;;;;;5053686;28;20091;-66
2021/10/08 09:18:09;;;;;;;10.27;5.80;;;17.00;95.10;;;;;;5046866;28;20328;-66
2021/10/08 09:20:36;;;;;;;9.60;5.15;;;17.10;95.20;;;;;;5080953;28;20119;-66
2021/10/08 09:23:04;;;;;;;9.63;5.70;;;17.10;95.30;;;;;;5059175;28;20048;-66
2021/10/08 09:25:33;;;;;;;7.43;4.75;;;17.10;94.60;;;;;;5067893;28;20091;-66
2021/10/08 09:28:08;;;;;;;7.70;5.43;;;17.00;94.80;;;;;;5076513;28;20135;-66
2021/10/08 09:30:40;;;;;;;8.50;6.18;;;17.00;95.00;;;;;;5058483;28;20048;-66
2021/10/08 09:33:15;;;;;;;6.13;4.40;;;17.00;95.30;;;;;;5059080;28;20049;-66
2021/10/08 09:35:42;;;;;;;7.20;5.32;;;17.10;95.70;;;;;;5047237;28;20545;-66
2021/10/08 09:38:12;;;;;;;8.77;4.68;;;17.10;95.00;;;;;;5069176;28;20078;-66
2021/10/08 09:40:52;;;;;;;7.40;4.82;;;17.20;95.00;;;;;;5061999;28;20127;-66
2021/10/08 09:43:22;;;;;;;10.00;5.45;;;17.20;94.70;;;;;;5040704;28;20535;-65
2021/10/08 09:45:53;;;;;;;8.45;5.30;;;17.30;95.80;;;;;;5077610;28;20055;-69
2021/10/08 09:48:21;;;;;;;6.65;5.30;;;17.40;95.10;;;;;;5040992;28;20051;-70
2021/10/08 09:51:07;;;;;;;15.48;5.97;;;17.50;94.40;;;;;;5075625;28;20045;-77
2021/10/08 09:53:36;;;;;;;8.90;6.00;;;17.50;94.70;;;;;;5045904;28;20460;-79
2021/10/08 09:56:22;;;;;;;6.93;4.95;;;17.60;94.60;;;;;;5058215;28;20071;-78
2021/10/08 09:58:52;;;;;;;14.57;10.18;;;17.70;95.00;;;;;;5073183;28;20139;-77
2021/10/08 10:01:27;;;;;;;12.00;10.20;;;17.90;93.70;;;;;;5034941;28;20060;-74
2021/10/08 10:03:54;;;;;;;9.32;5.53;;;17.90;94.00;;;;;;5063675;28;20074;-76
2021/10/08 10:06:21;;;;;;;7.45;4.90;;;18.00;93.60;;;;;;5054920;28;20127;-77
2021/10/08 10:08:49;;;;;;;8.68;5.32;;;18.00;93.40;;;;;;5051153;28;20493;-76
2021/10/08 10:11:17;;;;;;;6.35;4.60;;;18.10;93.00;;;;;;5054196;28;20143;-76
2021/10/08 10:13:49;;;;;;;8.52;5.07;;;18.10;92.40;;;;;;5070077;28;20563;-76
2021/10/08 10:16:17;;;;;;;7.10;5.07;;;18.10;92.80;;;;;;5054684;28;20106;-76
2021/10/08 10:18:47;;;;;;;7.80;3.67;;;18.20;92.40;;;;;;5054936;28;20052;-77
2021/10/08 10:21:24;;;;;;;8.35;4.70;;;18.30;91.90;;;;;;5072245;28;20056;-76
2021/10/08 10:23:55;;;;;;;7.75;4.38;;;18.30;92.50;;;;;;5070467;28;20036;-76
2021/10/08 10:26:23;;;;;;;20.35;13.10;;;18.30;92.60;;;;;;5071148;28;20044;-67
2021/10/08 10:28:53;;;;;;;8.25;5.72;;;18.30;91.80;;;;;;5071384;28;20123;-69
2021/10/08 10:31:20;;;;;;;6.13;3.72;;;18.30;92.70;;;;;;5072565;28;20675;-69
2021/10/08 10:33:50;;;;;;;6.43;3.33;;;18.30;91.70;;;;;;5062130;28;20204;-70
2021/10/08 10:36:28;;;;;;;4.03;2.35;;;18.40;91.30;;;;;;5057979;28;20122;-69
2021/10/08 10:39:33;;;;;;;5.35;2.53;;;18.40;91.80;;;;;;5073906;28;20058;-69
2021/10/08 10:42:03;;;;;;;3.65;2.05;;;18.40;91.60;;;;;;4985518;28;20046;-68
2021/10/08 10:44:41;;;;;;;7.78;4.90;;;18.40;91.10;;;;;;4981150;28;20173;-68
2021/10/08 10:47:18;;;;;;;7.88;4.30;;;18.50;91.60;;;;;;5015671;28;20041;-68
2021/10/08 10:52:21;;;;;;;3.45;2.22;;;18.50;91.10;;;;;;5070073;28;20045;-69
2021/10/08 10:54:51;;;;;;;7.55;2.60;;;18.50;91.00;;;;;;5070093;28;20050;-69
2021/10/08 10:57:22;;;;;;;2.88;2.17;;;18.50;91.40;;;;;;5071601;28;20341;-69
2021/10/08 10:59:49;;;;;;;3.55;1.90;;;18.50;91.50;;;;;;5071540;28;20076;-69
2021/10/08 11:02:22;;;;;;;3.72;1.92;;;18.50;91.50;;;;;;5076997;28;20530;-70
2021/10/08 11:04:56;;;;;;;5.35;2.58;;;18.50;90.60;;;;;;5042137;28;20127;-69
2021/10/08 11:07:23;;;;;;;3.53;2.40;;;18.50;91.10;;;;;;5020627;28;20109;-69
2021/10/08 11:10:02;;;;;;;3.70;2.35;;;18.60;91.00;;;;;;5069848;28;20172;-69
2021/10/08 11:12:42;;;;;;;3.13;2.22;;;18.70;91.10;;;;;;5051095;28;20049;-69
2021/10/08 11:15:18;;;;;;;3.25;2.10;;;18.70;90.40;;;;;;5063895;28;20131;-68
2021/10/08 11:17:58;;;;;;;3.70;2.10;;;18.70;91.00;;;;;;5071131;28;20103;-69
2021/10/08 11:20:29;;;;;;;3.70;2.00;;;18.70;90.90;;;;;;5070978;28;20082;-69
2021/10/08 11:23:00;;;;;;;2.70;1.83;;;18.80;91.40;;;;;;5071007;28;20049;-69
2021/10/08 11:25:33;;;;;;;3.85;1.50;;;18.90;91.10;;;;;;5070163;28;20079;-70
2021/10/08 11:28:00;;;;;;;3.10;1.95;;;18.90;90.30;;;;;;5052950;28;20507;-69
2021/10/08 11:30:29;;;;;;;3.40;1.25;;;18.90;90.90;;;;;;5070984;28;20071;-69
2021/10/08 11:32:57;;;;;;;1.97;1.40;;;18.90;89.90;;;;;;5069475;28;20053;-70
2021/10/08 11:35:32;;;;;;;2.77;1.33;;;18.80;90.90;;;;;;5052924;28;20056;-69
2021/10/08 11:37:59;;;;;;;2.17;1.20;;;18.90;90.60;;;;;;5070064;28;20560;-69
2021/10/08 11:40:33;;;;;;;2.22;1.45;;;18.90;90.20;;;;;;5070053;28;20048;-69
2021/10/08 11:43:03;;;;;;;2.25;1.67;;;18.90;90.50;;;;;;5069629;28;20392;-69
2021/10/08 11:45:36;;;;;;;3.22;1.60;;;18.80;90.70;;;;;;5070564;28;20055;-68
2021/10/08 11:48:24;;;;;;;3.50;2.17;;;18.80;91.00;;;;;;5070123;28;20057;-69
2021/10/08 11:51:02;;;;;;;2.60;1.83;;;18.80;90.70;;;;;;5053922;28;20135;-68
2021/10/08 11:53:46;;;;;;;2.55;1.70;;;18.80;90.80;;;;;;5068711;28;20049;-69
2021/10/08 11:56:27;;;;;;;2.95;2.17;;;18.90;90.60;;;;;;5050130;28;20091;-69
2021/10/08 11:59:09;;;;;;;2.25;1.67;;;19.00;90.00;;;;;;5051929;28;20091;-69
2021/10/08 12:01:37;;;;;;;2.95;1.80;;;19.00;90.70;;;;;;5067259;28;20407;-69
2021/10/08 12:04:05;;;;;;;2.75;1.58;;;19.00;90.30;;;;;;5058474;28;20354;-68
2021/10/08 12:06:32;;;;;;;2.15;1.40;;;19.00;90.60;;;;;;5069945;28;20081;-68
2021/10/08 12:09:04;;;;;;;2.60;1.52;;;19.00;90.50;;;;;;5035610;28;20071;-69
2021/10/08 12:11:31;;;;;;;3.13;1.30;;;19.00;90.40;;;;;;5052592;28;20045;-68
2021/10/08 12:14:04;;;;;;;1.52;1.20;;;18.90;90.50;;;;;;5051695;28;20151;-69
2021/10/08 12:16:37;;;;;;;1.92;1.30;;;18.80;90.60;;;;;;5070367;28;20093;-68
2021/10/08 12:19:05;;;;;;;2.40;1.58;;;18.70;90.60;;;;;;5069340;28;20412;-68
2021/10/08 12:21:38;;;;;;;1.77;1.40;;;18.70;90.50;;;;;;5068088;28;20067;-68
2021/10/08 12:24:09;;;;;;;3.35;1.88;;;18.60;90.50;;;;;;5079368;28;20385;-68
2021/10/08 12:26:39;;;;;;;10.57;6.90;;;18.50;90.70;;;;;;5088453;28;20052;-69
2021/10/08 12:29:08;;;;;;;5.95;5.20;;;18.50;90.80;;;;;;5072090;28;20131;-68
2021/10/08 12:31:50;;;;;;;;;;;18.40;91.60;;;;;;5064148;28;20230;-70
2021/10/08 12:34:37;;;;;;;7.55;2.53;;;18.30;92.10;;;;;;5068801;28;19958;-69
2021/10/08 12:37:16;;;;;;;4.28;2.17;;;18.10;91.80;;;;;;5069851;28;20135;-69
2021/10/08 12:40:12;;;;;;;2.78;1.67;;;18.00;92.10;;;;;;5070144;28;20443;-68
2021/10/08 12:43:20;;;;;;;8.23;2.67;;;18.00;92.40;;;;;;5069378;28;20377;-69
2021/10/08 12:45:43;;;;;;;4.32;2.42;;;17.90;92.20;;;;;;5051161;28;20480;-68
2021/10/08 12:48:17;;;;;;;2.88;1.70;;;17.90;92.30;;;;;;5051696;28;20090;-69
2021/10/08 12:50:44;;;;;;;3.03;1.80;;;17.90;92.50;;;;;;5052791;28;20072;-68
2021/10/08 12:53:18;;;;;;;6.07;4.32;;;17.90;92.50;;;;;;5079145;28;20052;-69
2021/10/08 12:55:46;;;;;;;3.00;2.20;;;17.90;92.30;;;;;;5081222;28;20118;-75